Terminal Aerodrome Forecast
Issued by NWS

Home | Current Version | Previous Version | Text Only | Print | Product List | Glossary On
Versions: 1 2 3 4 5 6 7 8 9 10 11 12 13 14 15 16 17
834
FTUS41 KGYX 251122
TAFPSM
TAF
KPSM 251122Z 2512/2612 11006KT P6SM -RA OVC090
      TEMPO 2513/2516 5SM -RA BKN025
     FM251600 12008KT 4SM -RA BKN015 OVC025
     FM251800 11009KT 2SM -RA BKN007 OVC015
      TEMPO 2518/2522 OVC003
     FM252200 11009KT 1SM -RA BR OVC003=

USA.gov is the U.S. government's official web portal to all federal, state and local government web resources and services.